sensor_id;sensor_type;location;lat;lon;timestamp;temperature;humidity
25328;DHT22;13279;51.300;12.394;2024-03-23T00:54:21;10.20;99.90
25328;DHT22;13279;51.300;12.394;2024-03-23T00:56:47;10.10;99.90
25328;DHT22;13279;51.300;12.394;2024-03-23T00:59:14;10.20;99.90
25328;DHT22;13279;51.300;12.394;2024-03-23T01:01:40;10.10;99.90
25328;DHT22;13279;51.300;12.394;2024-03-23T01:04:08;10.20;99.90
25328;DHT22;13279;51.300;12.394;2024-03-23T01:06:34;10.10;99.90
25328;DHT22;13279;51.300;12.394;2024-03-23T01:09:02;10.10;99.90
25328;DHT22;13279;51.300;12.394;2024-03-23T01:11:30;10.10;99.90
25328;DHT22;13279;51.300;12.394;2024-03-23T01:13:57;10.10;99.90
25328;DHT22;13279;51.300;12.394;2024-03-23T01:16:23;10.10;99.90
25328;DHT22;13279;51.300;12.394;2024-03-23T01:18:51;10.10;99.90
25328;DHT22;13279;51.300;12.394;2024-03-23T01:21:17;10.10;99.90
25328;DHT22;13279;51.300;12.394;2024-03-23T01:23:45;10.10;99.90
25328;DHT22;13279;51.300;12.394;2024-03-23T01:26:12;10.10;99.90
25328;DHT22;13279;51.300;12.394;2024-03-23T01:28:40;10.00;99.90
25328;DHT22;13279;51.300;12.394;2024-03-23T01:31:07;10.00;99.90
25328;DHT22;13279;51.300;12.394;2024-03-23T01:33:34;10.00;99.90
25328;DHT22;13279;51.300;12.394;2024-03-23T01:36:01;10.00;99.90
25328;DHT22;13279;51.300;12.394;2024-03-23T01:38:28;10.00;99.90
25328;DHT22;13279;51.300;12.394;2024-03-23T01:40:56;10.00;99.90
25328;DHT22;13279;51.300;12.394;2024-03-23T01:43:24;10.00;99.90
25328;DHT22;13279;51.300;12.394;2024-03-23T01:45:52;10.00;99.90
25328;DHT22;13279;51.300;12.394;2024-03-23T01:48:20;10.00;99.90
25328;DHT22;13279;51.300;12.394;2024-03-23T01:50:50;9.90;99.90
25328;DHT22;13279;51.300;12.394;2024-03-23T01:53:18;9.90;99.90
25328;DHT22;13279;51.300;12.394;2024-03-23T01:55:47;9.80;99.90
25328;DHT22;13279;51.300;12.394;2024-03-23T01:58:15;9.80;99.90
25328;DHT22;13279;51.300;12.394;2024-03-23T02:00:41;9.70;99.90
25328;DHT22;13279;51.300;12.394;2024-03-23T02:03:24;9.70;99.90
25328;DHT22;13279;51.300;12.394;2024-03-23T02:05:51;9.70;99.90
25328;DHT22;13279;51.300;12.394;2024-03-23T02:08:21;9.70;99.90
25328;DHT22;13279;51.300;12.394;2024-03-23T02:10:48;9.60;99.90
25328;DHT22;13279;51.300;12.394;2024-03-23T02:13:15;9.60;99.90
25328;DHT22;13279;51.300;12.394;2024-03-23T02:15:41;9.60;99.90
25328;DHT22;13279;51.300;12.394;2024-03-23T02:18:08;9.60;99.90
25328;DHT22;13279;51.300;12.394;2024-03-23T02:20:36;9.60;99.90
25328;DHT22;13279;51.300;12.394;2024-03-23T02:23:05;9.70;99.90
25328;DHT22;13279;51.300;12.394;2024-03-23T02:25:32;9.50;99.90
25328;DHT22;13279;51.300;12.394;2024-03-23T02:28:00;9.50;99.90
25328;DHT22;13279;51.300;12.394;2024-03-23T02:30:26;9.40;99.90
25328;DHT22;13279;51.300;12.394;2024-03-23T02:32:53;9.40;99.90
25328;DHT22;13279;51.300;12.394;2024-03-23T02:35:19;9.30;99.90
25328;DHT22;13279;51.300;12.394;2024-03-23T02:37:47;9.20;99.90
25328;DHT22;13279;51.300;12.394;2024-03-23T02:40:16;9.20;99.90
25328;DHT22;13279;51.300;12.394;2024-03-23T02:42:44;9.10;99.90
25328;DHT22;13279;51.300;12.394;2024-03-23T02:45:10;9.10;99.90
25328;DHT22;13279;51.300;12.394;2024-03-23T02:47:37;9.00;99.90
25328;DHT22;13279;51.300;12.394;2024-03-23T02:50:04;8.90;99.90
25328;DHT22;13279;51.300;12.394;2024-03-23T02:52:32;8.90;99.90
25328;DHT22;13279;51.300;12.394;2024-03-23T02:54:58;8.90;99.90
25328;DHT22;13279;51.300;12.394;2024-03-23T02:57:27;8.90;99.90
25328;DHT22;13279;51.300;12.394;2024-03-23T02:59:54;8.80;99.90
25328;DHT22;13279;51.300;12.394;2024-03-23T03:02:21;8.80;99.90
25328;DHT22;13279;51.300;12.394;2024-03-23T03:04:48;8.90;99.90
25328;DHT22;13279;51.300;12.394;2024-03-23T03:07:15;8.80;99.90
25328;DHT22;13279;51.300;12.394;2024-03-23T03:09:41;8.80;99.90
25328;DHT22;13279;51.300;12.394;2024-03-23T03:12:09;8.90;99.90
25328;DHT22;13279;51.300;12.394;2024-03-23T03:14:37;8.80;99.90
25328;DHT22;13279;51.300;12.394;2024-03-23T03:17:04;8.90;99.90
25328;DHT22;13279;51.300;12.394;2024-03-23T03:19:30;8.90;99.90
25328;DHT22;13279;51.300;12.394;2024-03-23T03:21:58;9.00;99.90
25328;DHT22;13279;51.300;12.394;2024-03-23T03:24:24;9.00;99.90
25328;DHT22;13279;51.300;12.394;2024-03-23T03:26:51;9.00;99.90
25328;DHT22;13279;51.300;12.394;2024-03-23T03:29:18;9.00;99.90
25328;DHT22;13279;51.300;12.394;2024-03-23T03:31:46;9.00;99.90
25328;DHT22;13279;51.300;12.394;2024-03-23T03:34:13;9.00;99.90
25328;DHT22;13279;51.300;12.394;2024-03-23T03:36:40;9.00;99.90
25328;DHT22;13279;51.300;12.394;2024-03-23T03:39:06;9.00;99.90
25328;DHT22;13279;51.300;12.394;2024-03-23T03:41:34;9.10;99.90
25328;DHT22;13279;51.300;12.394;2024-03-23T03:44:00;9.10;99.90
25328;DHT22;13279;51.300;12.394;2024-03-23T03:46:28;9.00;99.90
25328;DHT22;13279;51.300;12.394;2024-03-23T03:48:55;9.00;99.90
25328;DHT22;13279;51.300;12.394;2024-03-23T03:51:23;9.00;99.90
25328;DHT22;13279;51.300;12.394;2024-03-23T03:53:49;9.10;99.90
25328;DHT22;13279;51.300;12.394;2024-03-23T03:56:16;9.10;99.90
25328;DHT22;13279;51.300;12.394;2024-03-23T03:58:43;9.10;99.90
25328;DHT22;13279;51.300;12.394;2024-03-23T04:01:10;9.10;99.90
25328;DHT22;13279;51.300;12.394;2024-03-23T04:03:37;9.10;99.90
25328;DHT22;13279;51.300;12.394;2024-03-23T04:06:06;9.10;99.90
25328;DHT22;13279;51.300;12.394;2024-03-23T04:08:33;9.10;99.90
25328;DHT22;13279;51.300;12.394;2024-03-23T04:11:01;9.10;99.90
25328;DHT22;13279;51.300;12.394;2024-03-23T04:13:27;9.10;99.90
25328;DHT22;13279;51.300;12.394;2024-03-23T04:15:55;9.00;99.90
25328;DHT22;13279;51.300;12.394;2024-03-23T04:18:21;9.10;99.90
25328;DHT22;13279;51.300;12.394;2024-03-23T04:20:48;9.00;99.90
25328;DHT22;13279;51.300;12.394;2024-03-23T04:23:16;9.00;99.90
25328;DHT22;13279;51.300;12.394;2024-03-23T04:25:44;8.90;99.90
25328;DHT22;13279;51.300;12.394;2024-03-23T04:28:10;8.90;99.90
25328;DHT22;13279;51.300;12.394;2024-03-23T04:30:37;8.90;99.90
25328;DHT22;13279;51.300;12.394;2024-03-23T04:33:04;8.90;99.90
25328;DHT22;13279;51.300;12.394;2024-03-23T04:35:31;8.90;99.90
25328;DHT22;13279;51.300;12.394;2024-03-23T04:37:58;8.90;99.90
25328;DHT22;13279;51.300;12.394;2024-03-23T04:40:27;8.90;99.90
25328;DHT22;13279;51.300;12.394;2024-03-23T04:42:54;8.90;99.90
25328;DHT22;13279;51.300;12.394;2024-03-23T04:45:22;8.90;99.90
25328;DHT22;13279;51.300;12.394;2024-03-23T04:47:49;8.90;99.90
25328;DHT22;13279;51.300;12.394;2024-03-23T04:50:17;8.90;99.90
25328;DHT22;13279;51.300;12.394;2024-03-23T04:52:44;8.90;99.90
25328;DHT22;13279;51.300;12.394;2024-03-23T04:55:11;8.90;99.90
25328;DHT22;13279;51.300;12.394;2024-03-23T04:57:39;8.90;99.90
25328;DHT22;13279;51.300;12.394;2024-03-23T05:00:08;8.90;99.90
25328;DHT22;13279;51.300;12.394;2024-03-23T05:02:43;8.90;99.90
25328;DHT22;13279;51.300;12.394;2024-03-23T05:05:12;8.80;99.90
25328;DHT22;13279;51.300;12.394;2024-03-23T05:07:38;8.80;99.90
25328;DHT22;13279;51.300;12.394;2024-03-23T05:10:10;8.80;99.90
25328;DHT22;13279;51.300;12.394;2024-03-23T05:12:38;8.80;99.90
25328;DHT22;13279;51.300;12.394;2024-03-23T05:15:06;8.80;99.90
25328;DHT22;13279;51.300;12.394;2024-03-23T05:17:33;8.80;99.90
25328;DHT22;13279;51.300;12.394;2024-03-23T05:20:01;8.80;99.90
25328;DHT22;13279;51.300;12.394;2024-03-23T05:22:29;8.80;99.90
25328;DHT22;13279;51.300;12.394;2024-03-23T05:24:57;8.80;99.90
25328;DHT22;13279;51.300;12.394;2024-03-23T05:27:23;8.90;99.90
25328;DHT22;13279;51.300;12.394;2024-03-23T05:29:52;8.90;99.90
25328;DHT22;13279;51.300;12.394;2024-03-23T05:32:18;8.90;99.90
25328;DHT22;13279;51.300;12.394;2024-03-23T05:34:45;8.90;99.90
25328;DHT22;13279;51.300;12.394;2024-03-23T05:37:12;8.80;99.90
25328;DHT22;13279;51.300;12.394;2024-03-23T05:39:39;8.80;99.90
25328;DHT22;13279;51.300;12.394;2024-03-23T05:42:06;8.80;99.90
25328;DHT22;13279;51.300;12.394;2024-03-23T05:44:33;8.80;99.90
25328;DHT22;13279;51.300;12.394;2024-03-23T05:47:02;8.80;99.90
25328;DHT22;13279;51.300;12.394;2024-03-23T05:49:29;8.80;99.90
25328;DHT22;13279;51.300;12.394;2024-03-23T05:51:56;8.70;99.90
25328;DHT22;13279;51.300;12.394;2024-03-23T05:54:23;8.60;99.90
25328;DHT22;13279;51.300;12.394;2024-03-23T05:56:49;8.60;99.90
25328;DHT22;13279;51.300;12.394;2024-03-23T05:59:17;8.60;99.90
25328;DHT22;13279;51.300;12.394;2024-03-23T06:01:43;8.50;99.90
25328;DHT22;13279;51.300;12.394;2024-03-23T06:04:12;8.50;99.90
25328;DHT22;13279;51.300;12.394;2024-03-23T06:06:39;8.50;99.90
25328;DHT22;13279;51.300;12.394;2024-03-23T06:09:06;8.40;99.90
25328;DHT22;13279;51.300;12.394;2024-03-23T06:11:32;8.40;99.90
25328;DHT22;13279;51.300;12.394;2024-03-23T06:13:59;8.40;99.90
25328;DHT22;13279;51.300;12.394;2024-03-23T06:16:25;8.40;99.90
25328;DHT22;13279;51.300;12.394;2024-03-23T06:18:54;8.40;99.90
25328;DHT22;13279;51.300;12.394;2024-03-23T06:21:22;8.40;99.90
25328;DHT22;13279;51.300;12.394;2024-03-23T06:23:51;8.30;99.90
25328;DHT22;13279;51.300;12.394;2024-03-23T06:26:18;8.30;99.90
25328;DHT22;13279;51.300;12.394;2024-03-23T06:28:46;8.40;99.90
25328;DHT22;13279;51.300;12.394;2024-03-23T06:31:12;8.40;99.90
25328;DHT22;13279;51.300;12.394;2024-03-23T06:33:40;8.40;99.90
25328;DHT22;13279;51.300;12.394;2024-03-23T06:36:09;8.40;99.90
25328;DHT22;13279;51.300;12.394;2024-03-23T06:38:38;8.40;99.90
25328;DHT22;13279;51.300;12.394;2024-03-23T06:41:05;8.40;99.90
25328;DHT22;13279;51.300;12.394;2024-03-23T06:43:32;8.40;99.90
25328;DHT22;13279;51.300;12.394;2024-03-23T06:45:59;8.40;99.90
25328;DHT22;13279;51.300;12.394;2024-03-23T06:48:26;8.40;99.90
25328;DHT22;13279;51.300;12.394;2024-03-23T06:50:55;8.40;99.90
25328;DHT22;13279;51.300;12.394;2024-03-23T06:53:23;8.40;99.90
25328;DHT22;13279;51.300;12.394;2024-03-23T06:55:52;8.40;99.90
25328;DHT22;13279;51.300;12.394;2024-03-23T06:58:20;8.40;99.90
25328;DHT22;13279;51.300;12.394;2024-03-23T07:00:47;8.40;99.90
25328;DHT22;13279;51.300;12.394;2024-03-23T07:03:15;8.40;99.90
25328;DHT22;13279;51.300;12.394;2024-03-23T07:05:41;8.40;99.90
25328;DHT22;13279;51.300;12.394;2024-03-23T07:08:08;8.40;99.90
25328;DHT22;13279;51.300;12.394;2024-03-23T07:10:37;8.40;99.90
25328;DHT22;13279;51.300;12.394;2024-03-23T07:13:07;8.30;99.90
25328;DHT22;13279;51.300;12.394;2024-03-23T07:15:33;8.30;99.90
25328;DHT22;13279;51.300;12.394;2024-03-23T07:18:01;8.30;99.90
25328;DHT22;13279;51.300;12.394;2024-03-23T07:20:27;8.40;99.90
25328;DHT22;13279;51.300;12.394;2024-03-23T07:22:56;8.40;99.90
25328;DHT22;13279;51.300;12.394;2024-03-23T07:25:22;8.40;99.90
25328;DHT22;13279;51.300;12.394;2024-03-23T07:27:52;8.40;99.90
25328;DHT22;13279;51.300;12.394;2024-03-23T07:30:21;8.40;99.90
25328;DHT22;13279;51.300;12.394;2024-03-23T07:32:49;8.40;99.90
25328;DHT22;13279;51.300;12.394;2024-03-23T07:35:16;8.40;99.90
25328;DHT22;13279;51.300;12.394;2024-03-23T07:37:43;8.40;99.90
25328;DHT22;13279;51.300;12.394;2024-03-23T07:40:11;8.30;99.90
25328;DHT22;13279;51.300;12.394;2024-03-23T07:42:38;8.20;99.90
25328;DHT22;13279;51.300;12.394;2024-03-23T07:45:05;8.20;99.90
25328;DHT22;13279;51.300;12.394;2024-03-23T07:47:34;8.20;99.90
25328;DHT22;13279;51.300;12.394;2024-03-23T07:50:00;7.90;99.90
25328;DHT22;13279;51.300;12.394;2024-03-23T07:52:28;7.70;99.90
25328;DHT22;13279;51.300;12.394;2024-03-23T07:54:55;7.50;99.90
25328;DHT22;13279;51.300;12.394;2024-03-23T07:57:22;7.30;99.90
25328;DHT22;13279;51.300;12.394;2024-03-23T07:59:48;7.10;99.90
25328;DHT22;13279;51.300;12.394;2024-03-23T08:02:16;6.90;99.90
25328;DHT22;13279;51.300;12.394;2024-03-23T08:04:44;6.60;99.90
25328;DHT22;13279;51.300;12.394;2024-03-23T08:07:11;6.20;99.90
25328;DHT22;13279;51.300;12.394;2024-03-23T08:09:38;5.90;99.90
25328;DHT22;13279;51.300;12.394;2024-03-23T08:12:05;5.80;99.90
25328;DHT22;13279;51.300;12.394;2024-03-23T08:14:31;5.70;99.90
25328;DHT22;13279;51.300;12.394;2024-03-23T08:16:58;5.70;99.90
25328;DHT22;13279;51.300;12.394;2024-03-23T08:19:24;5.60;99.90
25328;DHT22;13279;51.300;12.394;2024-03-23T08:21:53;5.50;99.90
25328;DHT22;13279;51.300;12.394;2024-03-23T08:24:20;5.40;99.90
25328;DHT22;13279;51.300;12.394;2024-03-23T08:26:47;5.30;99.90
25328;DHT22;13279;51.300;12.394;2024-03-23T08:29:14;5.30;99.90
25328;DHT22;13279;51.300;12.394;2024-03-23T08:31:41;5.40;99.90
25328;DHT22;13279;51.300;12.394;2024-03-23T08:34:08;5.10;99.90
25328;DHT22;13279;51.300;12.394;2024-03-23T08:46:25;5.00;99.90
25328;DHT22;13279;51.300;12.394;2024-03-23T08:48:51;5.00;99.90
25328;DHT22;13279;51.300;12.394;2024-03-23T08:51:19;4.80;99.90
25328;DHT22;13279;51.300;12.394;2024-03-23T08:53:47;4.90;99.90
25328;DHT22;13279;51.300;12.394;2024-03-23T08:56:14;4.90;99.90
25328;DHT22;13279;51.300;12.394;2024-03-23T08:58:41;4.90;99.90
25328;DHT22;13279;51.300;12.394;2024-03-23T09:01:09;4.90;99.90
25328;DHT22;13279;51.300;12.394;2024-03-23T09:03:37;4.70;99.90
25328;DHT22;13279;51.300;12.394;2024-03-23T09:06:07;4.80;99.90
25328;DHT22;13279;51.300;12.394;2024-03-23T09:08:34;4.80;99.90
25328;DHT22;13279;51.300;12.394;2024-03-23T09:11:04;4.80;99.90
25328;DHT22;13279;51.300;12.394;2024-03-23T09:13:34;4.80;99.90
25328;DHT22;13279;51.300;12.394;2024-03-23T09:16:01;4.90;99.90
25328;DHT22;13279;51.300;12.394;2024-03-23T09:18:32;4.90;99.90
25328;DHT22;13279;51.300;12.394;2024-03-23T09:20:58;4.90;99.90
25328;DHT22;13279;51.300;12.394;2024-03-23T09:23:26;5.00;99.90
25328;DHT22;13279;51.300;12.394;2024-03-23T09:25:52;5.10;99.90
25328;DHT22;13279;51.300;12.394;2024-03-23T09:28:20;5.20;99.90
25328;DHT22;13279;51.300;12.394;2024-03-23T09:30:47;5.30;99.90
25328;DHT22;13279;51.300;12.394;2024-03-23T09:33:15;5.50;99.90
25328;DHT22;13279;51.300;12.394;2024-03-23T09:35:42;5.70;99.90
25328;DHT22;13279;51.300;12.394;2024-03-23T09:38:10;5.60;99.90
25328;DHT22;13279;51.300;12.394;2024-03-23T09:40:40;5.60;99.90
25328;DHT22;13279;51.300;12.394;2024-03-23T09:43:09;5.60;99.90
25328;DHT22;13279;51.300;12.394;2024-03-23T09:45:38;5.60;99.90
25328;DHT22;13279;51.300;12.394;2024-03-23T09:48:08;5.40;99.90
25328;DHT22;13279;51.300;12.394;2024-03-23T09:50:36;5.40;99.90
25328;DHT22;13279;51.300;12.394;2024-03-23T09:53:04;5.30;99.90
25328;DHT22;13279;51.300;12.394;2024-03-23T09:55:30;5.20;99.90
25328;DHT22;13279;51.300;12.394;2024-03-23T09:57:58;5.10;99.90
25328;DHT22;13279;51.300;12.394;2024-03-23T10:00:24;5.10;99.90
25328;DHT22;13279;51.300;12.394;2024-03-23T10:02:52;5.10;99.90
25328;DHT22;13279;51.300;12.394;2024-03-23T10:05:23;5.20;99.90
25328;DHT22;13279;51.300;12.394;2024-03-23T10:07:50;5.10;99.90
25328;DHT22;13279;51.300;12.394;2024-03-23T10:10:17;5.20;99.90
25328;DHT22;13279;51.300;12.394;2024-03-23T10:12:45;5.10;99.90
25328;DHT22;13279;51.300;12.394;2024-03-23T10:15:18;5.10;99.90
25328;DHT22;13279;51.300;12.394;2024-03-23T10:17:46;5.10;99.90
25328;DHT22;13279;51.300;12.394;2024-03-23T10:20:12;5.00;99.90
25328;DHT22;13279;51.300;12.394;2024-03-23T10:22:41;5.10;99.90
25328;DHT22;13279;51.300;12.394;2024-03-23T10:25:10;5.00;99.90
25328;DHT22;13279;51.300;12.394;2024-03-23T10:27:40;5.00;99.90
25328;DHT22;13279;51.300;12.394;2024-03-23T10:30:10;4.90;99.90
25328;DHT22;13279;51.300;12.394;2024-03-23T10:32:38;4.90;99.90
25328;DHT22;13279;51.300;12.394;2024-03-23T10:35:15;4.80;99.90
25328;DHT22;13279;51.300;12.394;2024-03-23T10:37:44;4.80;99.90
25328;DHT22;13279;51.300;12.394;2024-03-23T10:40:12;4.70;99.90
25328;DHT22;13279;51.300;12.394;2024-03-23T10:42:40;4.50;99.90
25328;DHT22;13279;51.300;12.394;2024-03-23T10:45:07;4.50;99.90
25328;DHT22;13279;51.300;12.394;2024-03-23T10:47:36;4.40;99.90
25328;DHT22;13279;51.300;12.394;2024-03-23T10:50:03;4.30;99.90
25328;DHT22;13279;51.300;12.394;2024-03-23T10:52:31;4.40;99.90
25328;DHT22;13279;51.300;12.394;2024-03-23T10:55:00;4.40;99.90
25328;DHT22;13279;51.300;12.394;2024-03-23T10:57:34;4.40;99.90
25328;DHT22;13279;51.300;12.394;2024-03-23T11:00:02;4.50;99.90
25328;DHT22;13279;51.300;12.394;2024-03-23T11:02:30;4.40;99.90
25328;DHT22;13279;51.300;12.394;2024-03-23T11:04:56;4.40;99.90
25328;DHT22;13279;51.300;12.394;2024-03-23T11:07:30;4.20;99.90
25328;DHT22;13279;51.300;12.394;2024-03-23T11:09:59;4.30;99.90
25328;DHT22;13279;51.300;12.394;2024-03-23T11:12:29;4.30;99.90
25328;DHT22;13279;51.300;12.394;2024-03-23T11:15:00;4.40;99.90
25328;DHT22;13279;51.300;12.394;2024-03-23T11:17:28;4.50;99.90
25328;DHT22;13279;51.300;12.394;2024-03-23T11:19:55;4.70;99.90
25328;DHT22;13279;51.300;12.394;2024-03-23T11:22:41;4.70;99.90
25328;DHT22;13279;51.300;12.394;2024-03-23T11:25:20;4.80;99.90
25328;DHT22;13279;51.300;12.394;2024-03-23T11:27:48;5.00;99.90
25328;DHT22;13279;51.300;12.394;2024-03-23T11:30:18;5.10;99.90
25328;DHT22;13279;51.300;12.394;2024-03-23T11:32:47;5.20;99.90
25328;DHT22;13279;51.300;12.394;2024-03-23T11:35:27;5.40;99.90
25328;DHT22;13279;51.300;12.394;2024-03-23T11:38:05;5.40;99.90
25328;DHT22;13279;51.300;12.394;2024-03-23T11:40:33;5.50;99.90
25328;DHT22;13279;51.300;12.394;2024-03-23T11:43:02;5.60;99.90
25328;DHT22;13279;51.300;12.394;2024-03-23T11:45:34;5.70;99.90
25328;DHT22;13279;51.300;12.394;2024-03-23T11:48:06;5.90;99.90
25328;DHT22;13279;51.300;12.394;2024-03-23T11:50:34;6.10;99.90
25328;DHT22;13279;51.300;12.394;2024-03-23T11:53:08;6.50;99.90
25328;DHT22;13279;51.300;12.394;2024-03-23T11:55:50;6.80;99.90
25328;DHT22;13279;51.300;12.394;2024-03-23T11:58:18;7.00;99.90
25328;DHT22;13279;51.300;12.394;2024-03-23T12:00:50;7.20;99.90
25328;DHT22;13279;51.300;12.394;2024-03-23T12:03:19;7.20;99.90
25328;DHT22;13279;51.300;12.394;2024-03-23T12:05:49;7.30;99.90
25328;DHT22;13279;51.300;12.394;2024-03-23T12:08:21;7.40;99.90
25328;DHT22;13279;51.300;12.394;2024-03-23T12:10:53;7.50;99.90
25328;DHT22;13279;51.300;12.394;2024-03-23T12:13:21;7.60;99.90
25328;DHT22;13279;51.300;12.394;2024-03-23T12:15:50;7.80;99.90
25328;DHT22;13279;51.300;12.394;2024-03-23T12:18:18;7.70;99.90
25328;DHT22;13279;51.300;12.394;2024-03-23T12:20:50;7.50;99.90
25328;DHT22;13279;51.300;12.394;2024-03-23T12:23:17;7.80;99.90
25328;DHT22;13279;51.300;12.394;2024-03-23T12:25:44;7.90;99.90
25328;DHT22;13279;51.300;12.394;2024-03-23T12:28:13;8.20;99.90
25328;DHT22;13279;51.300;12.394;2024-03-23T12:30:40;8.60;99.90
25328;DHT22;13279;51.300;12.394;2024-03-23T12:33:08;8.50;99.90
25328;DHT22;13279;51.300;12.394;2024-03-23T12:35:34;8.50;99.90
25328;DHT22;13279;51.300;12.394;2024-03-23T12:38:01;8.00;99.90
25328;DHT22;13279;51.300;12.394;2024-03-23T12:40:28;8.00;99.90
25328;DHT22;13279;51.300;12.394;2024-03-23T12:42:55;7.90;99.90
25328;DHT22;13279;51.300;12.394;2024-03-23T12:45:23;8.00;99.90
25328;DHT22;13279;51.300;12.394;2024-03-23T12:47:51;8.30;99.90
25328;DHT22;13279;51.300;12.394;2024-03-23T12:50:20;8.30;99.90
25328;DHT22;13279;51.300;12.394;2024-03-23T12:52:46;8.40;99.90
25328;DHT22;13279;51.300;12.394;2024-03-23T12:55:14;8.90;99.90
25328;DHT22;13279;51.300;12.394;2024-03-23T12:57:40;9.50;99.90
25328;DHT22;13279;51.300;12.394;2024-03-23T13:00:08;9.80;99.90
25328;DHT22;13279;51.300;12.394;2024-03-23T13:02:38;9.90;99.90
25328;DHT22;13279;51.300;12.394;2024-03-23T13:05:06;9.90;99.90
25328;DHT22;13279;51.300;12.394;2024-03-23T13:07:33;9.60;99.90
25328;DHT22;13279;51.300;12.394;2024-03-23T13:10:01;9.80;99.90
25328;DHT22;13279;51.300;12.394;2024-03-23T13:12:28;9.90;99.90
25328;DHT22;13279;51.300;12.394;2024-03-23T13:14:57;10.00;99.90
25328;DHT22;13279;51.300;12.394;2024-03-23T13:17:24;10.40;99.90
25328;DHT22;13279;51.300;12.394;2024-03-23T13:19:54;10.90;99.90
25328;DHT22;13279;51.300;12.394;2024-03-23T13:22:21;10.80;99.90
25328;DHT22;13279;51.300;12.394;2024-03-23T13:24:49;10.80;99.90
25328;DHT22;13279;51.300;12.394;2024-03-23T13:27:16;10.80;99.90
25328;DHT22;13279;51.300;12.394;2024-03-23T13:29:43;11.20;99.90
25328;DHT22;13279;51.300;12.394;2024-03-23T13:32:09;11.10;99.90
25328;DHT22;13279;51.300;12.394;2024-03-23T13:34:36;11.10;99.90
25328;DHT22;13279;51.300;12.394;2024-03-23T13:37:04;11.30;99.90
25328;DHT22;13279;51.300;12.394;2024-03-23T13:39:33;11.30;99.90
25328;DHT22;13279;51.300;12.394;2024-03-23T13:41:59;11.30;99.90
25328;DHT22;13279;51.300;12.394;2024-03-23T13:44:27;11.30;99.90
25328;DHT22;13279;51.300;12.394;2024-03-23T13:46:53;11.50;99.90
25328;DHT22;13279;51.300;12.394;2024-03-23T13:49:27;11.80;99.90
25328;DHT22;13279;51.300;12.394;2024-03-23T13:51:54;11.90;99.90
25328;DHT22;13279;51.300;12.394;2024-03-23T13:54:24;11.60;99.90
25328;DHT22;13279;51.300;12.394;2024-03-23T13:56:51;11.10;99.90
25328;DHT22;13279;51.300;12.394;2024-03-23T13:59:19;11.10;99.90
25328;DHT22;13279;51.300;12.394;2024-03-23T14:01:45;10.80;99.90
25328;DHT22;13279;51.300;12.394;2024-03-23T14:04:13;10.30;99.90
25328;DHT22;13279;51.300;12.394;2024-03-23T14:06:39;9.90;99.90
25328;DHT22;13279;51.300;12.394;2024-03-23T14:09:07;9.10;99.90
25328;DHT22;13279;51.300;12.394;2024-03-23T14:11:36;8.40;99.90
25328;DHT22;13279;51.300;12.394;2024-03-23T14:14:04;8.10;99.90
25328;DHT22;13279;51.300;12.394;2024-03-23T14:16:30;7.80;99.90
25328;DHT22;13279;51.300;12.394;2024-03-23T14:18:58;7.70;99.90
25328;DHT22;13279;51.300;12.394;2024-03-23T14:21:25;7.70;99.90
25328;DHT22;13279;51.300;12.394;2024-03-23T14:23:52;7.60;99.90
25328;DHT22;13279;51.300;12.394;2024-03-23T14:26:19;7.80;99.90
25328;DHT22;13279;51.300;12.394;2024-03-23T14:28:49;8.10;99.90
25328;DHT22;13279;51.300;12.394;2024-03-23T14:31:16;8.50;99.90
25328;DHT22;13279;51.300;12.394;2024-03-23T14:33:44;9.10;99.90
25328;DHT22;13279;51.300;12.394;2024-03-23T14:36:13;9.30;99.90
25328;DHT22;13279;51.300;12.394;2024-03-23T14:38:40;9.30;99.90
25328;DHT22;13279;51.300;12.394;2024-03-23T14:41:07;8.70;99.90
25328;DHT22;13279;51.300;12.394;2024-03-23T14:43:34;8.00;99.90
25328;DHT22;13279;51.300;12.394;2024-03-23T14:46:09;7.40;99.90
25328;DHT22;13279;51.300;12.394;2024-03-23T14:48:37;7.00;99.90
25328;DHT22;13279;51.300;12.394;2024-03-23T14:51:04;6.90;99.90
25328;DHT22;13279;51.300;12.394;2024-03-23T14:53:32;6.60;99.90
25328;DHT22;13279;51.300;12.394;2024-03-23T14:55:59;6.50;99.90
25328;DHT22;13279;51.300;12.394;2024-03-23T14:58:27;6.40;99.90
25328;DHT22;13279;51.300;12.394;2024-03-23T15:00:59;6.30;99.90
25328;DHT22;13279;51.300;12.394;2024-03-23T15:03:28;6.10;99.90
25328;DHT22;13279;51.300;12.394;2024-03-23T15:05:57;6.00;99.90
25328;DHT22;13279;51.300;12.394;2024-03-23T15:08:24;5.80;99.90
25328;DHT22;13279;51.300;12.394;2024-03-23T15:10:51;5.70;99.90
25328;DHT22;13279;51.300;12.394;2024-03-23T15:13:18;5.50;99.90
25328;DHT22;13279;51.300;12.394;2024-03-23T15:15:45;5.70;99.90
25328;DHT22;13279;51.300;12.394;2024-03-23T15:18:11;5.40;99.90
25328;DHT22;13279;51.300;12.394;2024-03-23T15:20:42;5.40;99.90
25328;DHT22;13279;51.300;12.394;2024-03-23T15:23:17;5.80;99.90
25328;DHT22;13279;51.300;12.394;2024-03-23T15:25:44;6.90;99.90
25328;DHT22;13279;51.300;12.394;2024-03-23T15:28:11;7.80;99.90
25328;DHT22;13279;51.300;12.394;2024-03-23T15:30:40;8.60;99.90
25328;DHT22;13279;51.300;12.394;2024-03-23T15:33:06;8.70;99.90
25328;DHT22;13279;51.300;12.394;2024-03-23T15:35:33;9.00;99.90
25328;DHT22;13279;51.300;12.394;2024-03-23T15:38:01;9.30;99.90
25328;DHT22;13279;51.300;12.394;2024-03-23T15:40:30;9.60;99.90
25328;DHT22;13279;51.300;12.394;2024-03-23T15:42:56;9.90;99.90
25328;DHT22;13279;51.300;12.394;2024-03-23T15:45:23;10.20;99.90
25328;DHT22;13279;51.300;12.394;2024-03-23T15:47:50;10.50;99.90
25328;DHT22;13279;51.300;12.394;2024-03-23T15:50:17;10.90;99.90
25328;DHT22;13279;51.300;12.394;2024-03-23T15:52:44;10.80;99.90
25328;DHT22;13279;51.300;12.394;2024-03-23T15:55:12;10.70;99.90
25328;DHT22;13279;51.300;12.394;2024-03-23T15:57:40;10.00;99.90
25328;DHT22;13279;51.300;12.394;2024-03-23T16:00:08;10.00;99.90
25328;DHT22;13279;51.300;12.394;2024-03-23T16:02:39;10.30;99.90
25328;DHT22;13279;51.300;12.394;2024-03-23T16:05:06;10.10;99.90
25328;DHT22;13279;51.300;12.394;2024-03-23T16:07:37;10.20;99.90
25328;DHT22;13279;51.300;12.394;2024-03-23T16:10:06;10.30;99.90
25328;DHT22;13279;51.300;12.394;2024-03-23T16:12:36;10.30;99.90
25328;DHT22;13279;51.300;12.394;2024-03-23T16:15:04;10.50;99.90
25328;DHT22;13279;51.300;12.394;2024-03-23T16:17:31;10.50;99.90
25328;DHT22;13279;51.300;12.394;2024-03-23T16:20:02;10.30;99.90
25328;DHT22;13279;51.300;12.394;2024-03-23T16:22:29;10.00;99.90
25328;DHT22;13279;51.300;12.394;2024-03-23T16:24:56;9.80;99.90
25328;DHT22;13279;51.300;12.394;2024-03-23T16:27:22;9.70;99.90
25328;DHT22;13279;51.300;12.394;2024-03-23T16:29:51;9.60;99.90
25328;DHT22;13279;51.300;12.394;2024-03-23T16:32:18;9.30;99.90
25328;DHT22;13279;51.300;12.394;2024-03-23T16:34:46;8.80;99.90